sensor_id;sensor_type;location;lat;lon;timestamp;P1;durP1;ratioP1;P2;durP2;ratioP2
54454;SDS011;40364;52.270;10.546;2023-05-10T00:00:34;8.18;;;3.30;;
54454;SDS011;40364;52.270;10.546;2023-05-10T00:03:01;4.15;;;3.08;;
54454;SDS011;40364;52.270;10.546;2023-05-10T00:05:29;5.28;;;3.08;;
54454;SDS011;40364;52.270;10.546;2023-05-10T00:07:57;4.90;;;3.35;;
54454;SDS011;40364;52.270;10.546;2023-05-10T00:10:24;6.38;;;3.50;;
54454;SDS011;40364;52.270;10.546;2023-05-10T00:12:51;4.43;;;3.25;;
54454;SDS011;40364;52.270;10.546;2023-05-10T00:15:17;6.07;;;3.25;;
54454;SDS011;40364;52.270;10.546;2023-05-10T00:17:44;5.65;;;3.03;;
54454;SDS011;40364;52.270;10.546;2023-05-10T00:20:11;7.50;;;3.45;;
54454;SDS011;40364;52.270;10.546;2023-05-10T00:22:38;4.90;;;3.25;;
54454;SDS011;40364;52.270;10.546;2023-05-10T00:25:07;7.22;;;3.42;;
54454;SDS011;40364;52.270;10.546;2023-05-10T00:27:35;11.52;;;3.50;;
54454;SDS011;40364;52.270;10.546;2023-05-10T00:30:01;5.55;;;3.60;;
54454;SDS011;40364;52.270;10.546;2023-05-10T00:32:28;5.57;;;3.42;;
54454;SDS011;40364;52.270;10.546;2023-05-10T00:34:55;5.30;;;3.30;;
54454;SDS011;40364;52.270;10.546;2023-05-10T00:37:22;5.15;;;3.20;;
54454;SDS011;40364;52.270;10.546;2023-05-10T00:39:48;5.20;;;3.65;;
54454;SDS011;40364;52.270;10.546;2023-05-10T00:42:16;6.80;;;2.80;;
54454;SDS011;40364;52.270;10.546;2023-05-10T00:44:43;4.93;;;3.25;;
54454;SDS011;40364;52.270;10.546;2023-05-10T00:47:09;4.43;;;3.03;;
54454;SDS011;40364;52.270;10.546;2023-05-10T00:49:36;3.83;;;2.97;;
54454;SDS011;40364;52.270;10.546;2023-05-10T00:52:03;7.88;;;3.42;;
54454;SDS011;40364;52.270;10.546;2023-05-10T00:54:31;6.57;;;3.35;;
54454;SDS011;40364;52.270;10.546;2023-05-10T00:56:57;9.70;;;3.55;;
54454;SDS011;40364;52.270;10.546;2023-05-10T00:59:25;6.13;;;3.22;;
54454;SDS011;40364;52.270;10.546;2023-05-10T01:01:52;8.07;;;3.30;;
54454;SDS011;40364;52.270;10.546;2023-05-10T01:04:19;5.28;;;3.95;;
54454;SDS011;40364;52.270;10.546;2023-05-10T01:06:50;5.05;;;2.92;;
54454;SDS011;40364;52.270;10.546;2023-05-10T01:09:17;4.22;;;3.40;;
54454;SDS011;40364;52.270;10.546;2023-05-10T01:11:45;5.70;;;2.92;;
54454;SDS011;40364;52.270;10.546;2023-05-10T01:14:12;5.57;;;3.63;;
54454;SDS011;40364;52.270;10.546;2023-05-10T01:16:40;4.57;;;3.20;;
54454;SDS011;40364;52.270;10.546;2023-05-10T01:19:11;6.68;;;3.20;;
54454;SDS011;40364;52.270;10.546;2023-05-10T01:21:42;5.47;;;3.42;;
54454;SDS011;40364;52.270;10.546;2023-05-10T01:30:51;7.10;;;3.90;;
54454;SDS011;40364;52.270;10.546;2023-05-10T01:33:34;4.63;;;3.08;;
54454;SDS011;40364;52.270;10.546;2023-05-10T01:36:06;6.07;;;3.13;;
54454;SDS011;40364;52.270;10.546;2023-05-10T01:38:41;6.43;;;3.30;;
54454;SDS011;40364;52.270;10.546;2023-05-10T01:41:13;7.47;;;3.35;;
54454;SDS011;40364;52.270;10.546;2023-05-10T01:43:45;4.47;;;3.38;;
54454;SDS011;40364;52.270;10.546;2023-05-10T01:46:21;4.50;;;3.35;;
54454;SDS011;40364;52.270;10.546;2023-05-10T01:48:55;7.28;;;3.65;;
54454;SDS011;40364;52.270;10.546;2023-05-10T01:51:25;5.80;;;3.53;;
54454;SDS011;40364;52.270;10.546;2023-05-10T01:53:59;6.90;;;3.42;;
54454;SDS011;40364;52.270;10.546;2023-05-10T01:56:28;7.85;;;3.40;;
54454;SDS011;40364;52.270;10.546;2023-05-10T01:58:57;4.68;;;3.28;;
54454;SDS011;40364;52.270;10.546;2023-05-10T02:01:25;4.47;;;3.67;;
54454;SDS011;40364;52.270;10.546;2023-05-10T02:03:55;4.65;;;3.15;;
54454;SDS011;40364;52.270;10.546;2023-05-10T02:06:23;8.05;;;3.70;;
54454;SDS011;40364;52.270;10.546;2023-05-10T02:08:51;7.65;;;3.70;;
54454;SDS011;40364;52.270;10.546;2023-05-10T02:11:19;6.43;;;3.97;;
54454;SDS011;40364;52.270;10.546;2023-05-10T02:13:48;9.48;;;3.83;;
54454;SDS011;40364;52.270;10.546;2023-05-10T02:16:16;4.47;;;3.22;;
54454;SDS011;40364;52.270;10.546;2023-05-10T02:18:48;5.55;;;3.65;;
54454;SDS011;40364;52.270;10.546;2023-05-10T02:21:18;4.70;;;3.42;;
54454;SDS011;40364;52.270;10.546;2023-05-10T02:23:46;5.38;;;3.03;;
54454;SDS011;40364;52.270;10.546;2023-05-10T02:26:16;4.65;;;3.35;;
54454;SDS011;40364;52.270;10.546;2023-05-10T02:28:44;6.13;;;3.50;;
54454;SDS011;40364;52.270;10.546;2023-05-10T02:31:11;5.97;;;3.30;;
54454;SDS011;40364;52.270;10.546;2023-05-10T02:33:39;5.82;;;3.78;;
54454;SDS011;40364;52.270;10.546;2023-05-10T02:36:07;3.88;;;3.25;;
54454;SDS011;40364;52.270;10.546;2023-05-10T02:38:36;4.40;;;3.30;;
54454;SDS011;40364;52.270;10.546;2023-05-10T02:41:04;6.45;;;3.25;;
54454;SDS011;40364;52.270;10.546;2023-05-10T02:43:32;5.18;;;3.65;;
54454;SDS011;40364;52.270;10.546;2023-05-10T02:45:59;6.55;;;3.63;;
54454;SDS011;40364;52.270;10.546;2023-05-10T02:48:26;4.35;;;3.15;;
54454;SDS011;40364;52.270;10.546;2023-05-10T02:50:54;5.88;;;3.45;;
54454;SDS011;40364;52.270;10.546;2023-05-10T02:53:28;7.40;;;4.03;;
54454;SDS011;40364;52.270;10.546;2023-05-10T02:56:00;5.53;;;3.65;;
54454;SDS011;40364;52.270;10.546;2023-05-10T02:58:32;4.20;;;3.45;;
54454;SDS011;40364;52.270;10.546;2023-05-10T03:00:59;5.75;;;3.30;;
54454;SDS011;40364;52.270;10.546;2023-05-10T03:03:26;5.60;;;3.90;;
54454;SDS011;40364;52.270;10.546;2023-05-10T03:05:52;5.93;;;3.60;;
54454;SDS011;40364;52.270;10.546;2023-05-10T03:08:20;5.55;;;3.50;;
54454;SDS011;40364;52.270;10.546;2023-05-10T03:10:53;5.90;;;3.70;;
54454;SDS011;40364;52.270;10.546;2023-05-10T03:13:28;6.38;;;3.70;;
54454;SDS011;40364;52.270;10.546;2023-05-10T03:16:04;4.72;;;3.30;;
54454;SDS011;40364;52.270;10.546;2023-05-10T03:18:42;6.45;;;4.68;;
54454;SDS011;40364;52.270;10.546;2023-05-10T03:21:14;8.35;;;3.83;;
54454;SDS011;40364;52.270;10.546;2023-05-10T03:23:45;5.30;;;3.53;;
54454;SDS011;40364;52.270;10.546;2023-05-10T03:26:17;4.68;;;3.53;;
54454;SDS011;40364;52.270;10.546;2023-05-10T03:28:48;7.25;;;3.70;;
54454;SDS011;40364;52.270;10.546;2023-05-10T03:31:15;8.48;;;3.83;;
54454;SDS011;40364;52.270;10.546;2023-05-10T03:33:46;7.78;;;3.88;;
54454;SDS011;40364;52.270;10.546;2023-05-10T03:36:13;7.13;;;3.70;;
54454;SDS011;40364;52.270;10.546;2023-05-10T03:38:41;10.32;;;3.95;;
54454;SDS011;40364;52.270;10.546;2023-05-10T03:41:07;6.57;;;3.90;;
54454;SDS011;40364;52.270;10.546;2023-05-10T03:43:34;7.00;;;3.88;;
54454;SDS011;40364;52.270;10.546;2023-05-10T03:46:03;5.57;;;3.92;;
54454;SDS011;40364;52.270;10.546;2023-05-10T03:48:29;5.15;;;3.72;;
54454;SDS011;40364;52.270;10.546;2023-05-10T03:50:56;5.47;;;4.05;;
54454;SDS011;40364;52.270;10.546;2023-05-10T03:53:23;8.60;;;3.95;;
54454;SDS011;40364;52.270;10.546;2023-05-10T03:55:50;5.90;;;3.70;;
54454;SDS011;40364;52.270;10.546;2023-05-10T03:58:16;9.80;;;4.30;;
54454;SDS011;40364;52.270;10.546;2023-05-10T04:00:43;6.97;;;4.25;;
54454;SDS011;40364;52.270;10.546;2023-05-10T04:03:12;8.52;;;4.05;;
54454;SDS011;40364;52.270;10.546;2023-05-10T04:05:38;6.28;;;3.65;;
54454;SDS011;40364;52.270;10.546;2023-05-10T04:08:05;7.88;;;4.07;;
54454;SDS011;40364;52.270;10.546;2023-05-10T04:10:32;5.45;;;3.53;;
54454;SDS011;40364;52.270;10.546;2023-05-10T04:12:59;5.60;;;4.30;;
54454;SDS011;40364;52.270;10.546;2023-05-10T04:15:26;11.52;;;4.32;;
54454;SDS011;40364;52.270;10.546;2023-05-10T04:17:53;5.90;;;4.00;;
54454;SDS011;40364;52.270;10.546;2023-05-10T04:20:21;6.10;;;4.10;;
54454;SDS011;40364;52.270;10.546;2023-05-10T04:22:48;6.07;;;4.07;;
54454;SDS011;40364;52.270;10.546;2023-05-10T04:25:14;6.43;;;3.97;;
54454;SDS011;40364;52.270;10.546;2023-05-10T04:27:41;9.55;;;4.30;;
54454;SDS011;40364;52.270;10.546;2023-05-10T04:30:08;8.90;;;4.95;;
54454;SDS011;40364;52.270;10.546;2023-05-10T04:32:35;8.20;;;4.00;;
54454;SDS011;40364;52.270;10.546;2023-05-10T04:35:02;8.65;;;4.85;;
54454;SDS011;40364;52.270;10.546;2023-05-10T04:37:33;9.85;;;3.90;;
54454;SDS011;40364;52.270;10.546;2023-05-10T04:39:59;7.43;;;4.10;;
54454;SDS011;40364;52.270;10.546;2023-05-10T04:42:28;10.88;;;4.03;;
54454;SDS011;40364;52.270;10.546;2023-05-10T04:44:54;8.60;;;4.10;;
54454;SDS011;40364;52.270;10.546;2023-05-10T04:47:21;7.95;;;4.35;;
54454;SDS011;40364;52.270;10.546;2023-05-10T04:49:47;9.25;;;5.10;;
54454;SDS011;40364;52.270;10.546;2023-05-10T04:52:14;9.10;;;5.05;;
54454;SDS011;40364;52.270;10.546;2023-05-10T04:54:43;7.22;;;4.50;;
54454;SDS011;40364;52.270;10.546;2023-05-10T04:57:10;4.97;;;3.95;;
54454;SDS011;40364;52.270;10.546;2023-05-10T04:59:37;8.05;;;4.15;;
54454;SDS011;40364;52.270;10.546;2023-05-10T05:02:03;8.98;;;4.60;;
54454;SDS011;40364;52.270;10.546;2023-05-10T05:04:31;6.63;;;4.35;;
54454;SDS011;40364;52.270;10.546;2023-05-10T05:06:57;8.00;;;4.68;;
54454;SDS011;40364;52.270;10.546;2023-05-10T05:09:24;6.65;;;4.38;;
54454;SDS011;40364;52.270;10.546;2023-05-10T05:11:52;8.07;;;4.50;;
54454;SDS011;40364;52.270;10.546;2023-05-10T05:14:19;10.40;;;4.68;;
54454;SDS011;40364;52.270;10.546;2023-05-10T05:16:46;10.57;;;5.13;;
54454;SDS011;40364;52.270;10.546;2023-05-10T05:19:12;6.72;;;4.63;;
54454;SDS011;40364;52.270;10.546;2023-05-10T05:21:39;8.52;;;4.53;;
54454;SDS011;40364;52.270;10.546;2023-05-10T05:24:06;7.70;;;4.40;;
54454;SDS011;40364;52.270;10.546;2023-05-10T05:26:33;7.30;;;4.45;;
54454;SDS011;40364;52.270;10.546;2023-05-10T05:29:01;5.82;;;4.90;;
54454;SDS011;40364;52.270;10.546;2023-05-10T05:31:28;5.68;;;3.97;;
54454;SDS011;40364;52.270;10.546;2023-05-10T05:33:54;6.20;;;4.40;;
54454;SDS011;40364;52.270;10.546;2023-05-10T05:36:21;7.07;;;4.32;;
54454;SDS011;40364;52.270;10.546;2023-05-10T05:38:48;9.35;;;4.82;;
54454;SDS011;40364;52.270;10.546;2023-05-10T05:41:14;6.93;;;4.57;;
54454;SDS011;40364;52.270;10.546;2023-05-10T05:43:41;6.28;;;4.60;;
54454;SDS011;40364;52.270;10.546;2023-05-10T05:46:09;8.68;;;4.80;;
54454;SDS011;40364;52.270;10.546;2023-05-10T05:48:35;6.28;;;4.35;;
54454;SDS011;40364;52.270;10.546;2023-05-10T05:51:02;7.80;;;4.45;;
54454;SDS011;40364;52.270;10.546;2023-05-10T05:53:29;7.03;;;4.75;;
54454;SDS011;40364;52.270;10.546;2023-05-10T05:55:56;6.55;;;4.72;;
54454;SDS011;40364;52.270;10.546;2023-05-10T05:58:24;8.98;;;4.88;;
54454;SDS011;40364;52.270;10.546;2023-05-10T06:00:51;7.75;;;4.50;;
54454;SDS011;40364;52.270;10.546;2023-05-10T06:03:22;8.80;;;5.15;;
54454;SDS011;40364;52.270;10.546;2023-05-10T06:05:48;7.55;;;5.00;;
54454;SDS011;40364;52.270;10.546;2023-05-10T06:08:15;6.13;;;4.28;;
54454;SDS011;40364;52.270;10.546;2023-05-10T06:10:41;7.45;;;5.15;;
54454;SDS011;40364;52.270;10.546;2023-05-10T06:13:09;6.45;;;4.60;;
54454;SDS011;40364;52.270;10.546;2023-05-10T06:15:36;7.53;;;5.13;;
54454;SDS011;40364;52.270;10.546;2023-05-10T06:18:02;5.90;;;4.57;;
54454;SDS011;40364;52.270;10.546;2023-05-10T06:20:30;6.45;;;4.78;;
54454;SDS011;40364;52.270;10.546;2023-05-10T06:22:57;9.73;;;4.60;;
54454;SDS011;40364;52.270;10.546;2023-05-10T06:25:24;7.32;;;4.70;;
54454;SDS011;40364;52.270;10.546;2023-05-10T06:27:50;7.32;;;4.60;;
54454;SDS011;40364;52.270;10.546;2023-05-10T06:30:22;7.80;;;4.35;;
54454;SDS011;40364;52.270;10.546;2023-05-10T06:32:52;6.65;;;4.68;;
54454;SDS011;40364;52.270;10.546;2023-05-10T06:35:19;6.00;;;4.60;;
54454;SDS011;40364;52.270;10.546;2023-05-10T06:37:47;8.93;;;4.68;;
54454;SDS011;40364;52.270;10.546;2023-05-10T06:40:14;8.85;;;5.50;;
54454;SDS011;40364;52.270;10.546;2023-05-10T06:42:40;8.70;;;4.95;;
54454;SDS011;40364;52.270;10.546;2023-05-10T06:45:07;7.82;;;5.47;;
54454;SDS011;40364;52.270;10.546;2023-05-10T06:47:35;10.73;;;5.30;;
54454;SDS011;40364;52.270;10.546;2023-05-10T06:50:01;8.07;;;5.45;;
54454;SDS011;40364;52.270;10.546;2023-05-10T06:52:28;9.07;;;5.68;;
54454;SDS011;40364;52.270;10.546;2023-05-10T06:54:56;8.27;;;5.50;;
54454;SDS011;40364;52.270;10.546;2023-05-10T06:57:23;8.38;;;5.57;;
54454;SDS011;40364;52.270;10.546;2023-05-10T06:59:50;9.95;;;5.80;;
54454;SDS011;40364;52.270;10.546;2023-05-10T07:02:17;9.13;;;6.05;;
54454;SDS011;40364;52.270;10.546;2023-05-10T07:04:44;9.32;;;6.22;;
54454;SDS011;40364;52.270;10.546;2023-05-10T07:07:13;9.52;;;6.32;;
54454;SDS011;40364;52.270;10.546;2023-05-10T07:09:40;8.38;;;5.78;;
54454;SDS011;40364;52.270;10.546;2023-05-10T07:12:08;12.23;;;6.45;;
54454;SDS011;40364;52.270;10.546;2023-05-10T07:14:35;10.10;;;5.85;;
54454;SDS011;40364;52.270;10.546;2023-05-10T07:17:01;10.88;;;5.90;;
54454;SDS011;40364;52.270;10.546;2023-05-10T07:19:28;10.35;;;6.07;;
54454;SDS011;40364;52.270;10.546;2023-05-10T07:21:57;14.48;;;6.50;;
54454;SDS011;40364;52.270;10.546;2023-05-10T07:24:24;11.55;;;6.18;;
54454;SDS011;40364;52.270;10.546;2023-05-10T07:26:50;11.55;;;6.57;;
54454;SDS011;40364;52.270;10.546;2023-05-10T07:29:18;9.48;;;7.07;;
54454;SDS011;40364;52.270;10.546;2023-05-10T07:31:45;8.85;;;6.43;;
54454;SDS011;40364;52.270;10.546;2023-05-10T07:34:11;9.38;;;6.80;;
54454;SDS011;40364;52.270;10.546;2023-05-10T07:36:38;10.88;;;6.88;;
54454;SDS011;40364;52.270;10.546;2023-05-10T07:39:05;13.43;;;7.07;;
54454;SDS011;40364;52.270;10.546;2023-05-10T07:41:32;12.75;;;6.80;;
54454;SDS011;40364;52.270;10.546;2023-05-10T07:43:58;13.00;;;7.07;;
54454;SDS011;40364;52.270;10.546;2023-05-10T07:46:26;12.63;;;7.15;;
54454;SDS011;40364;52.270;10.546;2023-05-10T07:48:53;13.27;;;7.55;;
54454;SDS011;40364;52.270;10.546;2023-05-10T07:51:20;13.32;;;6.70;;
54454;SDS011;40364;52.270;10.546;2023-05-10T07:53:46;8.82;;;6.60;;
54454;SDS011;40364;52.270;10.546;2023-05-10T07:56:20;9.48;;;6.90;;
54454;SDS011;40364;52.270;10.546;2023-05-10T07:58:47;12.60;;;7.03;;
54454;SDS011;40364;52.270;10.546;2023-05-10T08:01:14;12.52;;;6.60;;
54454;SDS011;40364;52.270;10.546;2023-05-10T08:03:42;10.75;;;7.15;;
54454;SDS011;40364;52.270;10.546;2023-05-10T08:06:08;11.52;;;6.78;;
54454;SDS011;40364;52.270;10.546;2023-05-10T08:08:35;9.70;;;7.13;;
54454;SDS011;40364;52.270;10.546;2023-05-10T08:11:02;9.85;;;6.50;;
54454;SDS011;40364;52.270;10.546;2023-05-10T08:13:29;10.82;;;7.32;;
54454;SDS011;40364;52.270;10.546;2023-05-10T08:15:56;9.88;;;6.63;;
54454;SDS011;40364;52.270;10.546;2023-05-10T08:18:23;13.73;;;7.10;;
54454;SDS011;40364;52.270;10.546;2023-05-10T08:20:51;13.18;;;6.88;;
54454;SDS011;40364;52.270;10.546;2023-05-10T08:23:18;13.65;;;7.10;;
54454;SDS011;40364;52.270;10.546;2023-05-10T08:25:44;10.95;;;6.88;;
54454;SDS011;40364;52.270;10.546;2023-05-10T08:28:11;12.55;;;7.40;;
54454;SDS011;40364;52.270;10.546;2023-05-10T08:30:38;9.35;;;6.60;;
54454;SDS011;40364;52.270;10.546;2023-05-10T08:33:04;12.73;;;7.47;;
54454;SDS011;40364;52.270;10.546;2023-05-10T08:35:31;10.77;;;7.30;;
54454;SDS011;40364;52.270;10.546;2023-05-10T08:37:59;10.63;;;6.78;;
54454;SDS011;40364;52.270;10.546;2023-05-10T08:40:26;15.55;;;8.43;;
54454;SDS011;40364;52.270;10.546;2023-05-10T08:42:54;11.50;;;7.10;;
54454;SDS011;40364;52.270;10.546;2023-05-10T08:45:24;10.50;;;7.10;;
54454;SDS011;40364;52.270;10.546;2023-05-10T08:47:58;11.23;;;7.30;;
54454;SDS011;40364;52.270;10.546;2023-05-10T08:50:27;10.75;;;7.75;;
54454;SDS011;40364;52.270;10.546;2023-05-10T08:52:55;14.45;;;7.55;;
54454;SDS011;40364;52.270;10.546;2023-05-10T08:55:27;18.95;;;8.40;;
54454;SDS011;40364;52.270;10.546;2023-05-10T08:57:55;13.30;;;8.10;;
54454;SDS011;40364;52.270;10.546;2023-05-10T09:00:22;11.40;;;7.57;;
54454;SDS011;40364;52.270;10.546;2023-05-10T09:02:49;12.75;;;7.25;;
54454;SDS011;40364;52.270;10.546;2023-05-10T09:05:16;13.77;;;7.53;;
54454;SDS011;40364;52.270;10.546;2023-05-10T09:07:43;9.18;;;6.80;;
54454;SDS011;40364;52.270;10.546;2023-05-10T09:10:09;12.30;;;7.85;;
54454;SDS011;40364;52.270;10.546;2023-05-10T09:12:38;9.90;;;7.47;;
54454;SDS011;40364;52.270;10.546;2023-05-10T09:15:06;10.85;;;7.85;;
54454;SDS011;40364;52.270;10.546;2023-05-10T09:17:34;13.35;;;8.18;;
54454;SDS011;40364;52.270;10.546;2023-05-10T09:20:02;10.68;;;7.85;;
54454;SDS011;40364;52.270;10.546;2023-05-10T09:22:30;11.82;;;8.07;;
54454;SDS011;40364;52.270;10.546;2023-05-10T09:25:03;10.50;;;7.65;;
54454;SDS011;40364;52.270;10.546;2023-05-10T09:27:31;12.20;;;8.52;;
54454;SDS011;40364;52.270;10.546;2023-05-10T09:30:18;12.90;;;8.55;;
54454;SDS011;40364;52.270;10.546;2023-05-10T09:32:50;13.18;;;8.20;;
54454;SDS011;40364;52.270;10.546;2023-05-10T09:35:18;11.43;;;8.63;;
54454;SDS011;40364;52.270;10.546;2023-05-10T09:37:46;14.15;;;8.43;;
54454;SDS011;40364;52.270;10.546;2023-05-10T09:40:14;14.65;;;9.63;;
54454;SDS011;40364;52.270;10.546;2023-05-10T09:42:43;13.75;;;9.57;;
54454;SDS011;40364;52.270;10.546;2023-05-10T09:45:18;12.93;;;8.87;;
54454;SDS011;40364;52.270;10.546;2023-05-10T09:47:46;12.88;;;8.40;;
54454;SDS011;40364;52.270;10.546;2023-05-10T09:50:13;13.23;;;7.78;;
54454;SDS011;40364;52.270;10.546;2023-05-10T09:52:46;14.35;;;8.23;;
54454;SDS011;40364;52.270;10.546;2023-05-10T09:55:15;11.30;;;8.38;;
54454;SDS011;40364;52.270;10.546;2023-05-10T09:57:42;9.35;;;7.30;;
54454;SDS011;40364;52.270;10.546;2023-05-10T10:00:09;7.90;;;5.57;;
54454;SDS011;40364;52.270;10.546;2023-05-10T10:02:38;9.55;;;5.57;;
54454;SDS011;40364;52.270;10.546;2023-05-10T10:05:06;5.43;;;3.97;;
54454;SDS011;40364;52.270;10.546;2023-05-10T10:07:33;5.65;;;3.80;;
54454;SDS011;40364;52.270;10.546;2023-05-10T10:10:00;4.28;;;2.97;;
54454;SDS011;40364;52.270;10.546;2023-05-10T10:12:27;2.47;;;2.10;;
54454;SDS011;40364;52.270;10.546;2023-05-10T10:14:54;3.30;;;2.03;;
54454;SDS011;40364;52.270;10.546;2023-05-10T10:17:22;3.70;;;2.53;;
54454;SDS011;40364;52.270;10.546;2023-05-10T10:19:55;3.03;;;1.65;;
54454;SDS011;40364;52.270;10.546;2023-05-10T10:22:23;2.58;;;1.65;;
54454;SDS011;40364;52.270;10.546;2023-05-10T10:24:50;4.25;;;1.70;;
54454;SDS011;40364;52.270;10.546;2023-05-10T10:27:19;2.30;;;1.90;;
54454;SDS011;40364;52.270;10.546;2023-05-10T10:29:52;2.97;;;1.50;;
54454;SDS011;40364;52.270;10.546;2023-05-10T10:32:29;1.13;;;1.02;;
54454;SDS011;40364;52.270;10.546;2023-05-10T10:35:05;1.02;;;0.93;;
54454;SDS011;40364;52.270;10.546;2023-05-10T10:37:43;0.80;;;0.80;;
54454;SDS011;40364;52.270;10.546;2023-05-10T10:40:27;1.33;;;1.00;;
54454;SDS011;40364;52.270;10.546;2023-05-10T10:42:54;1.00;;;0.90;;
54454;SDS011;40364;52.270;10.546;2023-05-10T10:45:22;2.00;;;1.00;;
54454;SDS011;40364;52.270;10.546;2023-05-10T10:47:53;2.13;;;0.88;;
54454;SDS011;40364;52.270;10.546;2023-05-10T10:50:44;1.07;;;0.90;;
54454;SDS011;40364;52.270;10.546;2023-05-10T10:53:11;1.25;;;1.00;;
54454;SDS011;40364;52.270;10.546;2023-05-10T10:55:44;0.88;;;0.80;;
54454;SDS011;40364;52.270;10.546;2023-05-10T10:58:12;1.17;;;1.02;;
54454;SDS011;40364;52.270;10.546;2023-05-10T11:01:02;0.80;;;0.80;;
54454;SDS011;40364;52.270;10.546;2023-05-10T11:03:36;3.45;;;1.05;;
54454;SDS011;40364;52.270;10.546;2023-05-10T11:06:04;1.10;;;1.00;;
54454;SDS011;40364;52.270;10.546;2023-05-10T11:08:31;2.53;;;0.82;;
54454;SDS011;40364;52.270;10.546;2023-05-10T11:11:02;1.85;;;1.20;;
54454;SDS011;40364;52.270;10.546;2023-05-10T11:13:33;1.00;;;0.90;;
54454;SDS011;40364;52.270;10.546;2023-05-10T11:16:14;1.10;;;1.00;;
54454;SDS011;40364;52.270;10.546;2023-05-10T11:18:51;0.77;;;0.70;;
54454;SDS011;40364;52.270;10.546;2023-05-10T11:21:21;0.68;;;0.60;;
54454;SDS011;40364;52.270;10.546;2023-05-10T11:23:48;0.80;;;0.80;;
54454;SDS011;40364;52.270;10.546;2023-05-10T11:26:16;1.10;;;1.00;;
54454;SDS011;40364;52.270;10.546;2023-05-10T11:28:44;1.02;;;0.80;;
54454;SDS011;40364;52.270;10.546;2023-05-10T11:31:13;0.80;;;0.70;;
54454;SDS011;40364;52.270;10.546;2023-05-10T11:33:42;0.95;;;0.90;;
54454;SDS011;40364;52.270;10.546;2023-05-10T11:36:10;1.50;;;0.95;;
54454;SDS011;40364;52.270;10.546;2023-05-10T11:38:38;1.10;;;0.90;;
54454;SDS011;40364;52.270;10.546;2023-05-10T11:41:05;1.00;;;0.90;;
54454;SDS011;40364;52.270;10.546;2023-05-10T11:43:35;1.55;;;1.25;;
54454;SDS011;40364;52.270;10.546;2023-05-10T11:46:03;1.27;;;1.15;;
54454;SDS011;40364;52.270;10.546;2023-05-10T11:48:30;1.30;;;1.10;;
54454;SDS011;40364;52.270;10.546;2023-05-10T11:51:00;1.40;;;0.93;;
54454;SDS011;40364;52.270;10.546;2023-05-10T11:53:29;1.85;;;1.00;;
54454;SDS011;40364;52.270;10.546;2023-05-10T11:56:03;1.00;;;0.90;;
54454;SDS011;40364;52.270;10.546;2023-05-10T11:58:30;1.52;;;1.10;;
54454;SDS011;40364;52.270;10.546;2023-05-10T12:00:57;1.48;;;0.90;;
54454;SDS011;40364;52.270;10.546;2023-05-10T12:03:24;1.45;;;0.90;;
54454;SDS011;40364;52.270;10.546;2023-05-10T12:05:51;1.25;;;0.73;;
54454;SDS011;40364;52.270;10.546;2023-05-10T12:08:20;1.10;;;0.90;;
54454;SDS011;40364;52.270;10.546;2023-05-10T12:10:48;1.55;;;0.70;;
54454;SDS011;40364;52.270;10.546;2023-05-10T12:13:18;0.77;;;0.70;;
54454;SDS011;40364;52.270;10.546;2023-05-10T12:15:46;2.05;;;0.80;;
54454;SDS011;40364;52.270;10.546;2023-05-10T12:18:13;2.85;;;0.95;;
54454;SDS011;40364;52.270;10.546;2023-05-10T12:20:40;1.30;;;0.90;;
54454;SDS011;40364;52.270;10.546;2023-05-10T12:23:08;2.38;;;0.90;;
54454;SDS011;40364;52.270;10.546;2023-05-10T12:25:36;0.77;;;0.68;;
54454;SDS011;40364;52.270;10.546;2023-05-10T12:28:04;2.47;;;0.90;;
54454;SDS011;40364;52.270;10.546;2023-05-10T12:30:34;0.68;;;0.52;;
54454;SDS011;40364;52.270;10.546;2023-05-10T12:33:02;1.13;;;0.85;;
54454;SDS011;40364;52.270;10.546;2023-05-10T12:35:38;2.17;;;1.00;;
54454;SDS011;40364;52.270;10.546;2023-05-10T12:38:22;3.80;;;0.70;;
54454;SDS011;40364;52.270;10.546;2023-05-10T12:40:51;1.05;;;0.82;;
54454;SDS011;40364;52.270;10.546;2023-05-10T12:43:17;1.60;;;0.80;;
54454;SDS011;40364;52.270;10.546;2023-05-10T12:45:46;3.45;;;1.10;;
54454;SDS011;40364;52.270;10.546;2023-05-10T12:48:13;1.52;;;1.00;;
54454;SDS011;40364;52.270;10.546;2023-05-10T12:50:40;1.33;;;1.00;;
54454;SDS011;40364;52.270;10.546;2023-05-10T12:53:07;2.35;;;1.00;;
54454;SDS011;40364;52.270;10.546;2023-05-10T12:55:33;1.58;;;1.13;;
54454;SDS011;40364;52.270;10.546;2023-05-10T12:58:00;1.90;;;0.70;;
54454;SDS011;40364;52.270;10.546;2023-05-10T13:00:26;1.08;;;0.88;;
54454;SDS011;40364;52.270;10.546;2023-05-10T13:02:54;0.80;;;0.80;;
54454;SDS011;40364;52.270;10.546;2023-05-10T13:05:21;0.93;;;0.60;;
54454;SDS011;40364;52.270;10.546;2023-05-10T13:07:47;0.88;;;0.88;;
54454;SDS011;40364;52.270;10.546;2023-05-10T13:10:14;10.93;;;4.20;;
54454;SDS011;40364;52.270;10.546;2023-05-10T13:12:41;2.90;;;0.70;;
54454;SDS011;40364;52.270;10.546;2023-05-10T13:15:08;1.70;;;0.70;;
54454;SDS011;40364;52.270;10.546;2023-05-10T13:17:35;2.97;;;0.95;;
54454;SDS011;40364;52.270;10.546;2023-05-10T13:20:05;1.65;;;0.90;;
54454;SDS011;40364;52.270;10.546;2023-05-10T13:22:32;3.35;;;0.80;;
54454;SDS011;40364;52.270;10.546;2023-05-10T13:24:59;11.10;;;5.03;;
54454;SDS011;40364;52.270;10.546;2023-05-10T13:27:26;2.97;;;2.30;;
54454;SDS011;40364;52.270;10.546;2023-05-10T13:29:52;1.58;;;0.82;;
54454;SDS011;40364;52.270;10.546;2023-05-10T13:32:19;1.33;;;0.88;;
54454;SDS011;40364;52.270;10.546;2023-05-10T13:34:46;1.42;;;0.88;;
54454;SDS011;40364;52.270;10.546;2023-05-10T13:37:14;1.48;;;0.80;;
54454;SDS011;40364;52.270;10.546;2023-05-10T13:39:41;2.30;;;1.00;;
54454;SDS011;40364;52.270;10.546;2023-05-10T13:42:07;1.38;;;1.00;;
54454;SDS011;40364;52.270;10.546;2023-05-10T13:44:34;2.78;;;0.93;;
54454;SDS011;40364;52.270;10.546;2023-05-10T13:47:01;2.42;;;1.13;;
54454;SDS011;40364;52.270;10.546;2023-05-10T13:49:27;3.40;;;1.98;;
54454;SDS011;40364;52.270;10.546;2023-05-10T13:51:54;2.72;;;1.00;;
54454;SDS011;40364;52.270;10.546;2023-05-10T13:54:22;1.70;;;1.02;;
54454;SDS011;40364;52.270;10.546;2023-05-10T13:56:50;2.70;;;1.15;;
54454;SDS011;40364;52.270;10.546;2023-05-10T13:59:16;8.40;;;1.58;;
54454;SDS011;40364;52.270;10.546;2023-05-10T14:01:43;3.35;;;1.20;;
54454;SDS011;40364;52.270;10.546;2023-05-10T14:04:09;3.47;;;1.30;;
54454;SDS011;40364;52.270;10.546;2023-05-10T14:06:37;1.33;;;1.10;;
54454;SDS011;40364;52.270;10.546;2023-05-10T14:09:03;2.03;;;1.05;;
54454;SDS011;40364;52.270;10.546;2023-05-10T14:11:34;1.27;;;0.93;;
54454;SDS011;40364;52.270;10.546;2023-05-10T14:14:00;1.85;;;1.15;;
54454;SDS011;40364;52.270;10.546;2023-05-10T14:16:27;1.63;;;0.80;;
54454;SDS011;40364;52.270;10.546;2023-05-10T14:18:54;1.38;;;1.00;;
54454;SDS011;40364;52.270;10.546;2023-05-10T14:21:20;1.67;;;0.95;;
54454;SDS011;40364;52.270;10.546;2023-05-10T14:23:47;3.38;;;0.88;;
54454;SDS011;40364;52.270;10.546;2023-05-10T14:26:14;2.13;;;1.08;;
54454;SDS011;40364;52.270;10.546;2023-05-10T14:28:42;1.70;;;1.05;;
54454;SDS011;40364;52.270;10.546;2023-05-10T14:31:09;5.32;;;2.17;;
54454;SDS011;40364;52.270;10.546;2023-05-10T14:33:35;1.08;;;0.80;;
54454;SDS011;40364;52.270;10.546;2023-05-10T14:36:04;3.05;;;1.20;;
54454;SDS011;40364;52.270;10.546;2023-05-10T14:38:31;2.17;;;1.13;;
54454;SDS011;40364;52.270;10.546;2023-05-10T14:40:58;8.07;;;4.30;;
54454;SDS011;40364;52.270;10.546;2023-05-10T14:43:24;1.60;;;0.93;;
54454;SDS011;40364;52.270;10.546;2023-05-10T14:45:53;1.13;;;0.90;;